Time;durP1;ratioP1;P1;durP2;ratioP2;P2;SDS_P1;SDS_P2;PMS_P1;PMS_P2;Temp;Humidity;BMP_temperature;BMP_pressure;BME280_temperature;BME280_humidity;BME280_pressure;Samples;Min_cycle;Max_cycle;Signal;HPM_P1;HPM_P2
2023/08/07 00:00:56;;;;;;;9.47;3.80;;;;;;;24.05;64.82;98837.03;123911;1099;104271;-76
2023/08/07 00:03:35;;;;;;;4.87;3.00;;;;;;;23.99;65.09;98834.63;123660;1099;104796;-77
2023/08/07 00:06:04;;;;;;;5.83;3.30;;;;;;;23.96;65.43;98831.23;123643;1099;104274;-77
2023/08/07 00:08:33;;;;;;;6.80;3.50;;;;;;;23.93;65.06;98832.23;123854;1099;104354;-77
2023/08/07 00:11:08;;;;;;;7.50;3.80;;;;;;;23.84;65.22;98833.55;123852;1099;104344;-77
2023/08/07 00:13:37;;;;;;;9.43;3.53;;;;;;;23.82;65.60;98837.19;123798;1099;104239;-77
2023/08/07 00:16:06;;;;;;;6.63;3.80;;;;;;;23.83;65.89;98833.58;123897;1099;104264;-77
2023/08/07 00:18:34;;;;;;;6.63;3.60;;;;;;;23.86;65.53;98838.83;123828;1099;104267;-77
2023/08/07 00:21:03;;;;;;;7.67;3.63;;;;;;;23.86;65.97;98841.52;123863;1098;104332;-77
2023/08/07 00:23:32;;;;;;;10.63;3.60;;;;;;;23.79;66.08;98832.83;123918;1099;104331;-76
2023/08/07 00:26:00;;;;;;;10.03;3.90;;;;;;;23.73;66.38;98829.56;123927;1099;104226;-76
2023/08/07 00:28:29;;;;;;;6.93;3.60;;;;;;;23.69;66.53;98834.20;123977;1099;104271;-78
2023/08/07 00:30:58;;;;;;;5.37;3.30;;;;;;;23.69;66.59;98847.59;123743;1099;104191;-77
2023/08/07 00:33:26;;;;;;;8.93;3.53;;;;;;;23.66;66.82;98843.23;123741;1099;104377;-76
2023/08/07 00:35:55;;;;;;;6.87;3.57;;;;;;;23.61;67.08;98847.92;123940;1099;104259;-77
2023/08/07 00:38:23;;;;;;;8.17;3.80;;;;;;;23.61;67.50;98842.57;123798;1099;104452;-76
2023/08/07 00:40:52;;;;;;;5.77;3.40;;;;;;;23.56;67.61;98847.27;123645;1099;104245;-76
2023/08/07 00:43:20;;;;;;;6.23;3.53;;;;;;;23.53;67.78;98850.08;123896;1099;104337;-77
2023/08/07 00:45:52;;;;;;;8.67;3.87;;;;;;;23.55;67.87;98847.34;123623;1099;104202;-77
2023/08/07 00:48:21;;;;;;;5.13;3.70;;;;;;;23.55;67.72;98848.20;123906;1099;104332;-77
2023/08/07 00:50:51;;;;;;;7.53;3.70;;;;;;;23.55;68.09;98847.34;123963;1099;104322;-77
2023/08/07 00:53:20;;;;;;;6.87;3.67;;;;;;;23.48;67.95;98852.06;124032;1099;104245;-77
2023/08/07 00:55:49;;;;;;;8.20;3.90;;;;;;;23.47;68.29;98861.91;123841;1099;104341;-77
2023/08/07 00:58:18;;;;;;;7.70;3.80;;;;;;;23.49;68.65;98860.03;123842;1099;104280;-77
2023/08/07 01:00:46;;;;;;;11.13;3.83;;;;;;;23.47;68.76;98858.37;123926;1098;104239;-77
2023/08/07 01:03:16;;;;;;;6.35;3.40;;;;;;;23.47;68.57;98848.53;123896;1099;104277;-78
2023/08/07 01:05:45;;;;;;;7.67;3.67;;;;;;;23.47;68.72;98848.53;123971;1099;104702;-77
2023/08/07 01:08:14;;;;;;;10.77;4.03;;;;;;;23.45;69.02;98853.09;123920;1099;104249;-77
2023/08/07 01:10:57;;;;;;;7.90;3.33;;;;;;;23.48;69.18;98846.71;123964;1099;104401;-78
2023/08/07 01:13:33;;;;;;;8.03;4.10;;;;;;;23.43;69.10;98854.08;123905;1099;104280;-76
2023/08/07 01:16:22;;;;;;;5.97;4.07;;;;;;;23.38;68.91;98856.95;123832;1099;104641;-77
2023/08/07 01:18:51;;;;;;;9.75;4.00;;;;;;;23.30;69.22;98851.93;123799;1099;104700;-76
2023/08/07 01:21:20;;;;;;;7.10;3.80;;;;;;;23.24;69.63;98845.98;123852;1099;104313;-76
2023/08/07 01:23:49;;;;;;;7.50;3.77;;;;;;;23.17;69.21;98837.36;123975;1099;104232;-77
2023/08/07 01:26:19;;;;;;;6.97;4.10;;;;;;;23.01;69.74;98830.86;123973;1099;104265;-77
2023/08/07 01:28:54;;;;;;;7.23;3.80;;;;;;;22.86;70.57;98835.92;123810;1099;104316;-77
2023/08/07 01:31:25;;;;;;;7.03;4.10;;;;;;;22.81;70.67;98832.55;123854;1099;104823;-78
2023/08/07 01:34:01;;;;;;;8.53;4.20;;;;;;;22.79;70.91;98839.77;124050;1099;104837;-78
2023/08/07 01:36:31;;;;;;;10.97;4.10;;;;;;;22.70;70.98;98832.98;123943;1099;104469;-77
2023/08/07 01:39:01;;;;;;;6.10;3.80;;;;;;;22.62;70.67;98835.11;123717;1099;104344;-78
2023/08/07 01:41:30;;;;;;;8.80;4.50;;;;;;;22.55;71.35;98837.16;123697;1099;104274;-77
2023/08/07 01:43:59;;;;;;;9.83;4.23;;;;;;;22.49;72.06;98840.08;124003;1099;104169;-76
2023/08/07 01:46:28;;;;;;;10.67;4.60;;;;;;;22.41;71.69;98848.39;123595;1099;104692;-76
2023/08/07 01:48:56;;;;;;;10.20;4.65;;;;;;;22.37;71.78;98851.25;123961;1099;104380;-76
2023/08/07 01:51:25;;;;;;;7.13;4.23;;;;;;;22.31;71.57;98857.69;123947;1099;104261;-76
2023/08/07 01:53:53;;;;;;;7.03;4.23;;;;;;;22.26;72.55;98854.30;123885;1098;104217;-77
2023/08/07 01:56:22;;;;;;;10.33;4.50;;;;;;;22.29;72.04;98866.68;123898;1099;104286;-77
2023/08/07 01:58:50;;;;;;;7.20;4.60;;;;;;;22.34;71.72;98870.93;123665;1099;104249;-77
2023/08/07 02:01:19;;;;;;;7.90;4.67;;;;;;;22.36;72.34;98870.87;123717;1099;104409;-76
2023/08/07 02:03:48;;;;;;;8.13;4.33;;;;;;;22.38;72.87;98885.06;123649;1099;104245;-76
2023/08/07 02:06:16;;;;;;;6.67;4.30;;;;;;;22.46;72.37;98887.44;123671;1099;104351;-76
2023/08/07 02:08:45;;;;;;;7.70;4.47;;;;;;;22.48;71.98;98891.78;123793;1099;104219;-77
2023/08/07 02:11:14;;;;;;;10.53;4.27;;;;;;;22.53;72.11;98891.59;123812;1099;104341;-76
2023/08/07 02:13:42;;;;;;;5.93;4.10;;;;;;;22.53;71.66;98888.92;123696;1099;104543;-77
2023/08/07 02:16:11;;;;;;;7.00;4.30;;;;;;;22.44;71.68;98884.83;123744;1099;104275;-76
2023/08/07 02:18:39;;;;;;;9.20;4.60;;;;;;;22.37;71.43;98897.53;123712;1099;104320;-77
2023/08/07 02:21:08;;;;;;;8.40;4.17;;;;;;;22.36;72.08;98889.57;123766;1099;104267;-77
2023/08/07 02:23:37;;;;;;;8.03;4.50;;;;;;;22.40;72.04;98905.44;123594;1099;104409;-76
2023/08/07 02:26:06;;;;;;;9.27;4.10;;;;;;;22.47;71.60;98902.52;123841;1099;104178;-76
2023/08/07 02:28:34;;;;;;;7.20;4.47;;;;;;;22.48;71.68;98904.28;123829;1099;104245;-77
2023/08/07 02:31:03;;;;;;;6.93;4.33;;;;;;;22.46;71.53;98904.34;123915;1099;104280;-77
2023/08/07 02:33:32;;;;;;;7.30;4.10;;;;;;;22.48;71.22;98897.13;123848;1099;104345;-77
2023/08/07 02:36:01;;;;;;;6.70;4.17;;;;;;;22.43;71.90;98904.45;123732;1099;104387;-78
2023/08/07 02:38:30;;;;;;;8.33;4.43;;;;;;;22.45;71.54;98910.60;123885;1099;104475;-78
2023/08/07 02:40:58;;;;;;;7.17;4.20;;;;;;;22.41;71.69;98915.20;124009;1099;104358;-77
2023/08/07 02:43:28;;;;;;;7.10;4.77;;;;;;;22.36;70.99;98917.19;123885;1099;104267;-78
2023/08/07 02:45:57;;;;;;;5.50;3.77;;;;;;;22.41;71.82;98919.69;123956;1099;104271;-76
2023/08/07 02:48:25;;;;;;;8.77;4.30;;;;;;;22.48;71.68;98928.33;124022;1099;104274;-77
2023/08/07 02:50:54;;;;;;;6.87;4.40;;;;;;;22.52;71.62;98936.17;123831;1099;104480;-77
2023/08/07 02:53:22;;;;;;;8.67;4.70;;;;;;;22.56;71.55;98940.48;123855;1099;104242;-77
2023/08/07 02:55:51;;;;;;;7.53;4.50;;;;;;;22.60;71.65;98952.78;123845;1099;104357;-77
2023/08/07 02:58:19;;;;;;;8.90;4.70;;;;;;;22.63;71.59;98949.13;123751;1099;104271;-77
2023/08/07 03:00:48;;;;;;;9.07;4.43;;;;;;;22.57;71.03;98955.57;123896;1099;104242;-77
2023/08/07 03:03:16;;;;;;;8.70;5.03;;;;;;;22.52;71.39;98962.04;123777;1099;104381;-76
2023/08/07 03:05:50;;;;;;;11.10;4.93;;;;;;;22.41;71.49;98968.65;123938;1099;104251;-78
2023/08/07 03:08:19;;;;;;;6.30;4.40;;;;;;;22.36;70.87;98978.64;123891;1099;104715;-77
2023/08/07 03:10:52;;;;;;;7.67;4.43;;;;;;;22.31;71.16;98983.27;123437;1099;104297;-77
2023/08/07 03:13:21;;;;;;;6.73;4.50;;;;;;;22.25;71.43;98976.33;123713;1099;104383;-77
2023/08/07 03:15:50;;;;;;;8.20;4.60;;;;;;;22.21;71.19;98974.69;123738;1099;104354;-77
2023/08/07 03:18:19;;;;;;;6.87;4.30;;;;;;;22.22;71.37;98978.22;123595;1099;104251;-78
2023/08/07 03:20:47;;;;;;;8.27;4.30;;;;;;;22.21;71.21;98985.38;123581;1099;104361;-77
2023/08/07 03:23:16;;;;;;;7.47;4.40;;;;;;;22.19;71.39;98981.90;123871;1099;104175;-77
2023/08/07 03:25:45;;;;;;;7.00;4.50;;;;;;;22.22;71.45;98987.13;123598;1099;104278;-76
2023/08/07 03:28:13;;;;;;;5.85;4.30;;;;;;;22.20;71.87;98993.45;123812;1099;104242;-77
2023/08/07 03:30:42;;;;;;;9.53;4.50;;;;;;;22.19;71.49;98995.25;123928;1099;104225;-76
2023/08/07 03:33:11;;;;;;;8.27;4.30;;;;;;;22.15;71.75;99000.76;123688;1098;104357;-76
2023/08/07 03:35:40;;;;;;;7.17;4.50;;;;;;;22.15;71.57;99011.45;123774;1099;104303;-78
2023/08/07 03:38:09;;;;;;;8.00;4.90;;;;;;;22.19;71.52;99013.95;123934;1099;104220;-77
2023/08/07 03:40:38;;;;;;;7.93;4.20;;;;;;;22.26;72.25;99010.12;123861;1098;104316;-76
2023/08/07 03:43:08;;;;;;;5.67;4.37;;;;;;;22.34;71.67;99025.91;123520;1099;104272;-77
2023/08/07 03:45:38;;;;;;;9.23;4.47;;;;;;;22.39;71.58;99015.05;123567;1098;104329;-78
2023/08/07 03:48:07;;;;;;;8.53;4.73;;;;;;;22.49;71.40;99016.47;123595;1099;104169;-77
2023/08/07 03:50:37;;;;;;;8.75;4.80;;;;;;;22.55;71.79;99026.08;123959;1099;104281;-77
2023/08/07 03:53:07;;;;;;;12.80;4.77;;;;;;;22.61;71.43;99021.36;123699;1099;104389;-77
2023/08/07 03:55:41;;;;;;;6.90;4.40;;;;;;;22.64;71.64;99017.72;123780;1099;104505;-77
2023/08/07 03:58:10;;;;;;;8.53;4.30;;;;;;;22.63;71.42;99028.47;123789;1099;104248;-76
2023/08/07 04:00:39;;;;;;;6.80;4.43;;;;;;;22.61;71.60;99026.71;124186;1099;104341;-77
2023/08/07 04:03:07;;;;;;;8.77;5.10;;;;;;;22.59;71.71;99028.58;123677;1099;104338;-77
2023/08/07 04:05:36;;;;;;;7.40;4.70;;;;;;;22.57;71.23;99037.57;123738;1099;104290;-78
2023/08/07 04:08:05;;;;;;;7.40;4.73;;;;;;;22.54;71.72;99037.69;124006;1099;104338;-77
2023/08/07 04:10:33;;;;;;;7.67;4.40;;;;;;;22.53;70.93;99043.95;124243;1099;104283;-78
2023/08/07 04:13:02;;;;;;;9.00;5.03;;;;;;;22.51;71.69;99043.14;124357;1099;104297;-79
2023/08/07 04:15:31;;;;;;;6.33;4.60;;;;;;;22.53;71.60;99044.84;124350;1099;104162;-79
2023/08/07 04:17:59;;;;;;;7.83;4.60;;;;;;;22.56;71.99;99050.08;124415;1099;104428;-78
2023/08/07 04:20:28;;;;;;;6.87;4.63;;;;;;;22.60;71.95;99042.81;125298;1099;104373;-80
2023/08/07 04:22:56;;;;;;;8.45;4.95;;;;;;;22.65;71.62;99037.29;125108;1098;104386;-81
2023/08/07 04:25:25;;;;;;;9.37;5.20;;;;;;;22.65;71.70;99040.83;125143;1099;104236;-80
2023/08/07 04:27:54;;;;;;;10.10;4.75;;;;;;;22.66;71.71;99041.69;125702;1099;104228;-79
2023/08/07 04:30:23;;;;;;;7.37;5.03;;;;;;;22.70;71.51;99046.00;124734;1099;104389;-79
2023/08/07 04:32:51;;;;;;;8.80;4.97;;;;;;;22.73;71.41;99056.58;124024;1099;104268;-78
2023/08/07 04:35:20;;;;;;;10.03;5.00;;;;;;;22.77;71.09;99063.57;123984;1099;104223;-78
2023/08/07 04:37:48;;;;;;;7.07;4.97;;;;;;;22.82;71.38;99055.37;124447;1099;104239;-79
2023/08/07 04:40:17;;;;;;;8.67;4.90;;;;;;;22.88;71.64;99050.66;124279;1099;104683;-78
2023/08/07 04:42:45;;;;;;;8.13;4.87;;;;;;;22.99;71.85;99047.58;124172;1099;104235;-78
2023/08/07 04:45:14;;;;;;;9.63;4.83;;;;;;;23.10;71.89;99050.73;123949;1099;104351;-76
2023/08/07 04:47:43;;;;;;;7.57;4.47;;;;;;;23.12;71.45;99054.25;124076;1099;104300;-77
2023/08/07 04:50:14;;;;;;;10.10;4.90;;;;;;;23.09;71.08;99054.37;124048;1099;104651;-75
2023/08/07 04:52:43;;;;;;;10.50;4.67;;;;;;;23.04;71.19;99058.11;123994;1099;104261;-78
2023/08/07 04:55:13;;;;;;;7.90;4.80;;;;;;;22.97;71.26;99058.34;124398;1099;104421;-76
2023/08/07 04:57:41;;;;;;;8.53;4.63;;;;;;;22.97;71.30;99061.02;124498;1099;104315;-75
2023/08/07 05:00:18;;;;;;;6.07;4.37;;;;;;;22.99;70.73;99052.93;124213;1098;104396;-81
2023/08/07 05:02:50;;;;;;;8.10;4.70;;;;;;;23.07;71.15;99064.20;124678;1099;104254;-81
2023/08/07 05:05:27;;;;;;;7.30;4.20;;;;;;;23.18;71.18;99063.81;124385;1099;102456;-87
2023/08/07 05:07:58;;;;;;;10.60;4.60;;;;;;;23.25;70.67;99059.98;124745;1099;104353;-79
2023/08/07 05:10:27;;;;;;;8.87;4.63;;;;;;;23.29;70.70;99064.27;124660;1099;104328;-78
2023/08/07 05:12:56;;;;;;;6.43;4.10;;;;;;;23.40;70.46;99071.86;124856;1099;104341;-84
2023/08/07 05:15:28;;;;;;;8.37;4.73;;;;;;;23.48;70.46;99068.88;124934;1099;102099;-83
2023/08/07 05:17:58;;;;;;;7.97;4.60;;;;;;;23.57;70.35;99076.55;126216;1099;104236;-81
2023/08/07 05:20:28;;;;;;;7.30;4.13;;;;;;;23.64;70.08;99069.16;125067;1099;104326;-80
2023/08/07 05:22:56;;;;;;;6.93;4.10;;;;;;;23.72;70.09;99087.56;125602;1099;102414;-82
2023/08/07 05:25:26;;;;;;;8.93;4.30;;;;;;;23.69;69.55;99084.08;124993;1099;104268;-82
2023/08/07 05:27:57;;;;;;;6.03;4.10;;;;;;;23.68;69.78;99085.04;125186;1099;102319;-85
2023/08/07 05:30:28;;;;;;;7.60;4.43;;;;;;;23.74;69.60;99081.22;126280;1099;102063;-79
2023/08/07 05:32:58;;;;;;;8.60;4.73;;;;;;;23.82;70.34;99089.80;125220;1099;102609;-76
2023/08/07 05:35:27;;;;;;;5.83;3.93;;;;;;;23.86;70.10;99095.95;125066;1099;104208;-79
2023/08/07 05:38:03;;;;;;;5.70;3.67;;;;;;;23.83;70.29;99104.09;125140;1099;102622;-78
2023/08/07 05:40:36;;;;;;;9.13;4.17;;;;;;;23.84;70.53;99105.84;126277;1099;101974;-76
2023/08/07 05:43:13;;;;;;;6.53;3.90;;;;;;;23.86;70.22;99107.53;126811;1097;103653;-78
2023/08/07 05:45:48;;;;;;;5.20;3.93;;;;;;;23.89;70.43;99109.22;125969;1099;102677;-77
2023/08/07 05:48:27;;;;;;;6.73;4.13;;;;;;;23.89;70.30;99117.26;124710;1099;104252;-76
2023/08/07 05:50:57;;;;;;;7.00;3.87;;;;;;;23.91;70.33;99122.55;125148;1099;104245;-76
2023/08/07 05:53:38;;;;;;;5.63;3.97;;;;;;;23.89;70.06;99127.98;124896;1099;102556;-78
2023/08/07 05:56:20;;;;;;;6.47;4.13;;;;;;;23.84;69.93;99124.59;125004;1099;103284;-79
2023/08/07 05:59:03;;;;;;;4.67;3.80;;;;;;;23.85;70.09;99129.88;126435;1099;102698;-81
2023/08/07 06:01:47;;;;;;;8.00;4.15;;;;;;;23.93;69.79;99128.71;126369;1099;102500;-82
2023/08/07 06:04:38;;;;;;;6.73;3.87;;;;;;;23.96;69.45;99133.94;126145;1099;102265;-81
2023/08/07 06:10:20;;;;;;;;;;;;;;;24.33;69.60;99129.73;126593;1099;102806;-82
2023/08/07 06:13:06;;;;;;;4.70;3.63;;;;;;;24.48;69.18;99144.27;126418;1099;102467;-79
2023/08/07 06:15:35;;;;;;;5.03;4.00;;;;;;;24.49;68.72;99141.52;126482;1098;102625;-79
2023/08/07 06:18:31;;;;;;;;;;;;;;;;;;;;;
2023/08/07 06:21:31;;;;;;;7.97;3.67;;;;;;;24.67;68.50;99139.03;126104;1098;103144;-80
2023/08/07 06:24:21;;;;;;;4.80;3.43;;;;;;;24.71;68.42;99143.30;125938;1099;103013;-81
2023/08/07 06:27:00;;;;;;;6.00;3.90;;;;;;;24.55;66.38;99129.66;125486;1103;102800;-80
2023/08/07 06:29:33;;;;;;;5.90;3.43;;;;;;;24.55;66.50;99148.44;125711;1099;104798;-82
2023/08/07 06:32:48;;;;;;;5.43;3.50;;;;;;;24.56;66.63;99150.19;126179;1099;102594;-82
2023/08/07 06:35:37;;;;;;;4.10;3.23;;;;;;;24.56;66.76;99160.92;126312;1099;103782;-80
2023/08/07 06:38:28;;;;;;;5.67;3.60;;;;;;;24.52;65.46;99157.47;126315;1098;103211;-83
2023/08/07 06:42:00;;;;;;;4.47;3.13;;;;;;;24.46;65.53;99156.88;126392;1099;104163;-82
2023/08/07 06:44:49;;;;;;;4.55;3.65;;;;;;;24.45;65.18;99157.80;125956;1099;102950;-79
2023/08/07 06:47:29;;;;;;;4.03;3.40;;;;;;;24.44;64.43;99162.30;125537;1099;103070;-82
2023/08/07 06:50:23;;;;;;;4.80;3.27;;;;;;;24.40;63.53;99166.04;125986;1099;102059;-82
2023/08/07 06:52:55;;;;;;;4.20;3.37;;;;;;;24.36;63.36;99173.34;125778;1099;103118;-82
2023/08/07 06:55:59;;;;;;;;;;;;;;;;;;;;;
2023/08/07 06:58:31;;;;;;;5.95;3.35;;;;;;;24.45;63.30;99182.83;125286;1099;102426;-82
2023/08/07 07:01:12;;;;;;;6.77;3.43;;;;;;;24.53;63.35;99182.50;125362;1099;102403;-81
2023/08/07 07:03:52;;;;;;;4.43;3.40;;;;;;;24.68;63.21;99199.75;126198;1099;102086;-82
2023/08/07 07:06:46;;;;;;;6.07;3.67;;;;;;;24.78;63.13;99179.66;125806;1099;103410;-81
2023/08/07 07:09:18;;;;;;;5.77;3.93;;;;;;;24.92;63.72;99192.46;125621;1099;104210;-82
2023/08/07 07:12:04;;;;;;;7.43;3.77;;;;;;;25.11;63.11;99190.69;125790;1099;102076;-82
2023/08/07 07:15:10;;;;;;;4.90;3.60;;;;;;;25.22;62.78;99190.20;125518;1099;104242;-81
2023/08/07 07:17:56;;;;;;;8.07;3.90;;;;;;;25.35;62.64;99198.59;126264;1099;102516;-82
2023/08/07 07:20:43;;;;;;;7.10;3.70;;;;;;;25.43;62.62;99208.97;126102;1099;102407;-82
2023/08/07 07:23:32;;;;;;;4.70;3.07;;;;;;;25.58;62.64;99207.41;126142;1099;103653;-77
2023/08/07 07:26:16;;;;;;;8.50;3.40;;;;;;;25.72;62.15;99212.99;125610;1099;102336;-80
2023/08/07 07:28:58;;;;;;;4.53;2.70;;;;;;;25.88;61.77;99231.94;126144;1099;104136;-79
2023/08/07 07:31:28;;;;;;;6.65;3.33;;;;;;;26.04;61.33;99225.86;125986;1099;104149;-79
2023/08/07 07:34:00;;;;;;;4.70;2.77;;;;;;;26.28;60.97;99219.28;125787;1099;104364;-78
2023/08/07 07:36:33;;;;;;;7.40;2.40;;;;;;;26.54;60.17;99215.30;125807;1099;104182;-82
2023/08/07 07:39:09;;;;;;;2.97;2.60;;;;;;;26.81;58.40;99228.31;126398;1099;104242;-81
2023/08/07 07:41:45;;;;;;;3.03;2.73;;;;;;;27.29;58.32;99228.52;126212;1099;104218;-81
2023/08/07 07:44:18;;;;;;;2.90;2.60;;;;;;;27.71;57.35;99239.77;126290;1099;102701;-83
2023/08/07 07:46:50;;;;;;;2.43;2.23;;;;;;;27.97;56.91;99252.69;126192;1099;102033;-82
2023/08/07 07:49:25;;;;;;;2.80;2.30;;;;;;;27.99;55.64;99263.39;125697;1102;104169;-81
2023/08/07 07:52:13;;;;;;;2.83;2.40;;;;;;;27.80;53.79;99258.98;125999;1099;102697;-83
2023/08/07 07:54:47;;;;;;;3.33;2.63;;;;;;;27.71;53.99;99270.27;126114;1099;104226;-81
2023/08/07 07:57:18;;;;;;;3.50;2.70;;;;;;;27.62;53.70;99274.32;125782;1099;102697;-82
2023/08/07 07:59:53;;;;;;;5.20;2.60;;;;;;;27.53;53.41;99273.95;125713;1099;102017;-81
2023/08/07 08:02:24;;;;;;;3.23;2.40;;;;;;;27.51;53.53;99270.48;125563;1099;102825;-84
2023/08/07 08:04:57;;;;;;;3.90;2.70;;;;;;;27.44;53.18;99267.23;125740;1099;102549;-80
2023/08/07 08:07:27;;;;;;;7.00;2.73;;;;;;;27.45;53.60;99274.38;126199;1099;104188;-78
2023/08/07 08:09:57;;;;;;;3.97;2.73;;;;;;;27.42;53.30;99271.84;126180;1099;104169;-80
2023/08/07 08:12:33;;;;;;;3.93;2.27;;;;;;;27.45;52.96;99263.59;126398;1099;102053;-81
2023/08/07 08:15:06;;;;;;;3.40;2.33;;;;;;;27.41;52.39;99264.70;125979;1099;103626;-79
2023/08/07 08:17:39;;;;;;;4.87;2.50;;;;;;;27.34;50.91;99271.39;126125;1099;104031;-80
2023/08/07 08:20:18;;;;;;;2.53;2.30;;;;;;;27.11;50.45;99273.42;124960;1099;102431;-79
2023/08/07 08:22:50;;;;;;;4.60;2.40;;;;;;;26.95;50.81;99272.50;125499;1099;103967;-78
2023/08/07 08:25:20;;;;;;;3.57;2.30;;;;;;;26.83;50.47;99273.98;125485;1099;103500;-80
2023/08/07 08:27:50;;;;;;;4.30;2.60;;;;;;;26.75;50.29;99284.27;125608;1099;104814;-83
2023/08/07 08:30:23;;;;;;;4.17;2.53;;;;;;;26.80;50.70;99291.17;126094;1099;104325;-81
2023/08/07 08:32:57;;;;;;;2.67;2.43;;;;;;;26.90;50.68;99289.73;126188;1099;104191;-81
2023/08/07 08:35:26;;;;;;;4.90;2.80;;;;;;;27.02;50.53;99290.95;126282;1099;102096;-85
2023/08/07 08:38:09;;;;;;;2.70;2.40;;;;;;;27.08;50.04;99290.63;126369;1099;102549;-81
2023/08/07 08:40:40;;;;;;;2.80;2.50;;;;;;;27.16;50.08;99287.53;126455;1099;103331;-82
2023/08/07 08:43:15;;;;;;;3.93;2.70;;;;;;;27.24;49.90;99301.46;126563;1099;102508;-81
2023/08/07 08:45:54;;;;;;;2.90;2.60;;;;;;;27.25;49.77;99296.94;126432;1099;104176;-80
2023/08/07 08:48:25;;;;;;;4.37;2.30;;;;;;;27.26;49.95;99304.08;126063;1099;102373;-81
2023/08/07 08:50:57;;;;;;;3.57;2.30;;;;;;;27.23;49.57;99309.63;125830;1099;104309;-80
2023/08/07 08:53:32;;;;;;;3.27;2.10;;;;;;;27.15;49.22;99304.63;125057;1099;101967;-80
2023/08/07 08:56:02;;;;;;;2.30;2.10;;;;;;;27.09;49.16;99308.50;125683;1099;104123;-82
2023/08/07 08:58:46;;;;;;;2.20;2.00;;;;;;;27.12;49.47;99307.48;126485;1098;104159;-84
2023/08/07 09:01:21;;;;;;;2.30;1.80;;;;;;;27.11;48.89;99311.11;125434;1099;104311;-78
2023/08/07 09:03:54;;;;;;;2.17;1.97;;;;;;;27.07;49.49;99306.86;125798;1098;103097;-78
2023/08/07 09:06:28;;;;;;;2.00;1.80;;;;;;;27.05;49.42;99312.32;126031;1099;102033;-81
2023/08/07 09:09:00;;;;;;;2.47;1.90;;;;;;;27.15;48.59;99317.23;126328;1099;102036;-80
2023/08/07 09:11:33;;;;;;;1.80;1.70;;;;;;;27.24;48.71;99314.92;126451;1099;102888;-82
2023/08/07 09:14:09;;;;;;;1.47;1.37;;;;;;;27.28;48.25;99314.77;125674;1099;102322;-80
2023/08/07 09:16:42;;;;;;;1.40;1.30;;;;;;;27.26;48.01;99313.02;126888;1099;102634;-79
2023/08/07 09:19:13;;;;;;;2.93;1.20;;;;;;;27.31;47.58;99318.19;126164;1099;102996;-80
2023/08/07 09:21:43;;;;;;;;;;;;;;;27.38;46.89;99326.84;127014;1098;102012;-81
2023/08/07 09:24:18;;;;;;;0.90;0.90;;;;;;;27.49;46.94;99332.53;126898;1098;102760;-81
2023/08/07 09:26:54;;;;;;;1.10;1.03;;;;;;;27.67;46.29;99327.97;126158;1098;102485;-85
2023/08/07 09:29:30;;;;;;;1.43;1.20;;;;;;;27.88;46.18;99333.17;126782;1099;103477;-82
2023/08/07 09:32:09;;;;;;;1.70;0.75;;;;;;;27.98;46.06;99337.13;126363;1099;102284;-79
2023/08/07 09:34:40;;;;;;;2.23;1.00;;;;;;;28.11;45.61;99334.61;126904;1098;102836;-80
2023/08/07 09:37:19;;;;;;;0.90;0.90;;;;;;;28.15;45.31;99330.80;126860;1099;102265;-83
2023/08/07 09:43:03;;;;;;;1.20;1.10;;;;;;;28.10;43.30;99343.67;126328;1099;103646;-79
2023/08/07 09:46:04;;;;;;;1.20;1.00;;;;;;;28.00;43.90;99345.13;126843;1098;102299;-81
2023/08/07 09:48:39;;;;;;;1.30;1.20;;;;;;;28.10;43.83;99340.98;126985;1098;102783;-78
2023/08/07 09:51:12;;;;;;;1.57;0.90;;;;;;;28.26;43.78;99343.69;126533;1099;112018;-80
2023/08/07 09:53:45;;;;;;;3.85;1.07;;;;;;;28.43;44.02;99346.30;126507;1098;102049;-79
2023/08/07 09:56:29;;;;;;;1.75;1.15;;;;;;;28.63;43.67;99361.39;126384;1099;103684;-82
2023/08/07 09:58:59;;;;;;;1.27;1.10;;;;;;;28.74;43.55;99359.91;126914;1099;102538;-80
2023/08/07 10:01:32;;;;;;;1.73;1.00;;;;;;;28.86;42.75;99357.36;126461;1099;101639;-79
2023/08/07 10:04:07;;;;;;;3.03;1.10;;;;;;;28.97;42.93;99361.28;126589;1099;102748;-81
2023/08/07 10:06:37;;;;;;;8.77;1.00;;;;;;;28.96;41.78;99364.92;126942;1098;102355;-85
2023/08/07 10:09:13;;;;;;;1.13;1.07;;;;;;;28.90;41.77;99386.88;126382;1099;103524;-80
2023/08/07 10:11:44;;;;;;;0.83;0.60;;;;;;;29.01;41.34;99384.42;126282;1099;108717;-83
2023/08/07 10:14:16;;;;;;;;;;;;;;;29.20;41.47;99386.93;126629;1099;102212;-82
2023/08/07 10:16:51;;;;;;;2.07;1.20;;;;;;;29.33;41.55;99384.39;126699;1099;102039;-81
2023/08/07 10:19:23;;;;;;;0.93;0.80;;;;;;;29.57;41.37;99382.02;117949;1099;10000905;-83
2023/08/07 10:21:55;;;;;;;2.07;0.80;;;;;;;29.77;40.89;99388.92;126199;1099;102635;-80
2023/08/07 10:24:37;;;;;;;2.87;0.90;;;;;;;29.87;40.42;99400.06;126738;1099;102187;-81
2023/08/07 10:27:19;;;;;;;0.90;0.83;;;;;;;29.90;39.96;99399.87;126475;1099;102583;-80
2023/08/07 10:29:53;;;;;;;1.10;0.80;;;;;;;29.68;39.89;99395.75;126573;1099;102860;-78
2023/08/07 10:32:55;;;;;;;2.37;0.80;;;;;;;29.62;39.41;99401.53;126539;1098;108175;-81
2023/08/07 10:38:38;;;;;;;0.87;0.70;;;;;;;29.27;38.52;99411.77;126070;1099;102189;-81
2023/08/07 10:41:26;;;;;;;0.87;0.70;;;;;;;29.03;38.73;99428.39;126689;1099;101768;-81
2023/08/07 10:44:30;;;;;;;0.80;0.80;;;;;;;28.78;38.73;99424.44;126055;1102;103347;-80
2023/08/07 10:47:06;;;;;;;1.13;0.90;;;;;;;28.72;38.23;99421.19;126315;1099;102799;-78
2023/08/07 10:49:39;;;;;;;2.50;1.10;;;;;;;28.81;38.01;99426.06;126154;1099;102362;-82
2023/08/07 10:52:14;;;;;;;0.97;0.90;;;;;;;29.12;38.09;99424.30;126211;1098;103186;-83
2023/08/07 10:55:02;;;;;;;0.60;0.60;;;;;;;29.37;37.85;99413.84;126461;1099;102219;-79
2023/08/07 10:58:23;;;;;;;1.00;0.80;;;;;;;29.59;37.57;99415.23;125778;1099;104148;-80
2023/08/07 11:02:03;;;;;;;;;;;;;;;;;;;;;
2023/08/07 11:05:35;;;;;;;;;;;;;;;;;;;;;
2023/08/07 11:08:29;;;;;;;0.60;0.60;;;;;;;29.85;37.37;99420.92;125622;1099;103248;-83
2023/08/07 11:11:35;;;;;;;0.97;0.90;;;;;;;29.89;37.16;99427.89;126261;1098;102369;-82
2023/08/07 11:14:17;;;;;;;2.03;0.90;;;;;;;30.04;37.36;99426.05;125756;1102;102985;-80
2023/08/07 11:17:03;;;;;;;0.50;0.50;;;;;;;30.00;36.55;99433.50;125641;1099;103126;-82
2023/08/07 11:19:37;;;;;;;2.03;0.77;;;;;;;29.71;36.56;99425.30;117297;1099;10000917;-81
2023/08/07 11:22:14;;;;;;;3.93;0.67;;;;;;;29.67;36.65;99437.28;126340;1099;103113;-82
2023/08/07 11:24:45;;;;;;;0.70;0.70;;;;;;;29.54;36.62;99442.53;126401;1099;104252;-83
2023/08/07 11:27:22;;;;;;;;;;;;;;;29.68;36.69;99441.70;125895;1099;101868;-79
2023/08/07 11:30:04;;;;;;;0.60;0.60;;;;;;;29.88;36.39;99443.22;126455;1099;104083;-80
2023/08/07 11:32:39;;;;;;;1.23;0.70;;;;;;;29.95;36.30;99432.92;126210;1099;104197;-84
2023/08/07 11:35:11;;;;;;;1.23;0.97;;;;;;;30.04;36.18;99437.73;125906;1099;103192;-81
2023/08/07 11:37:54;;;;;;;1.97;0.50;;;;;;;30.14;36.08;99434.45;125815;1099;102761;-80
2023/08/07 11:40:26;;;;;;;1.17;0.80;;;;;;;30.20;36.16;99429.55;126155;1098;102647;-82
2023/08/07 11:43:18;;;;;;;0.60;0.60;;;;;;;30.23;36.23;99434.77;126181;1099;103303;-82
2023/08/07 11:45:55;;;;;;;3.13;0.70;;;;;;;30.14;35.50;99427.23;125634;1099;102881;-81
2023/08/07 11:49:05;;;;;;;2.07;0.67;;;;;;;30.12;35.40;99421.03;125789;1099;103373;-81
2023/08/07 11:51:42;;;;;;;1.10;0.93;;;;;;;30.14;35.48;99423.64;126074;1099;102037;-79
2023/08/07 11:54:16;;;;;;;0.93;0.70;;;;;;;30.06;34.82;99433.12;125962;1099;103073;-80
2023/08/07 11:56:50;;;;;;;0.70;0.70;;;;;;;29.94;34.76;99432.03;126210;1099;104153;-78
2023/08/07 12:02:27;;;;;;;1.30;0.80;;;;;;;30.04;34.92;99429.62;126726;1099;102926;-79
2023/08/07 12:05:10;;;;;;;2.40;0.80;;;;;;;30.04;35.07;99429.62;127874;1098;101955;-86
2023/08/07 12:07:42;;;;;;;0.93;0.60;;;;;;;29.97;34.85;99436.39;126322;1099;104159;-82
2023/08/07 12:10:27;;;;;;;0.70;0.70;;;;;;;29.88;35.21;99442.37;125792;1099;101779;-84